sensor_id;sensor_type;location;lat;lon;timestamp;temperature;humidity
7388;DHT22;3735;50.136;11.062;2023-04-23T00:00:52;14.90;99.90
7388;DHT22;3735;50.136;11.062;2023-04-23T00:03:22;14.80;99.90
7388;DHT22;3735;50.136;11.062;2023-04-23T00:05:51;14.70;99.90
7388;DHT22;3735;50.136;11.062;2023-04-23T00:08:17;14.60;99.90
7388;DHT22;3735;50.136;11.062;2023-04-23T00:10:43;14.50;99.90
7388;DHT22;3735;50.136;11.062;2023-04-23T00:13:10;14.30;99.90
7388;DHT22;3735;50.136;11.062;2023-04-23T00:15:36;14.20;99.90
7388;DHT22;3735;50.136;11.062;2023-04-23T00:18:02;14.10;99.90
7388;DHT22;3735;50.136;11.062;2023-04-23T00:20:28;14.00;99.90
7388;DHT22;3735;50.136;11.062;2023-04-23T00:22:54;14.00;99.90
7388;DHT22;3735;50.136;11.062;2023-04-23T00:25:20;13.90;99.90
7388;DHT22;3735;50.136;11.062;2023-04-23T00:27:46;13.90;99.90
7388;DHT22;3735;50.136;11.062;2023-04-23T00:30:12;14.00;99.90
7388;DHT22;3735;50.136;11.062;2023-04-23T00:32:38;13.90;99.90
7388;DHT22;3735;50.136;11.062;2023-04-23T00:35:07;14.00;99.90
7388;DHT22;3735;50.136;11.062;2023-04-23T00:37:33;14.00;99.90
7388;DHT22;3735;50.136;11.062;2023-04-23T00:39:59;14.00;99.90
7388;DHT22;3735;50.136;11.062;2023-04-23T00:42:25;13.90;99.90
7388;DHT22;3735;50.136;11.062;2023-04-23T00:44:52;13.90;99.90
7388;DHT22;3735;50.136;11.062;2023-04-23T00:47:18;13.90;99.90
7388;DHT22;3735;50.136;11.062;2023-04-23T00:49:45;13.80;99.90
7388;DHT22;3735;50.136;11.062;2023-04-23T00:52:11;13.80;99.90
7388;DHT22;3735;50.136;11.062;2023-04-23T00:54:36;13.80;99.90
7388;DHT22;3735;50.136;11.062;2023-04-23T00:57:02;13.80;99.90
7388;DHT22;3735;50.136;11.062;2023-04-23T00:59:29;13.70;99.90
7388;DHT22;3735;50.136;11.062;2023-04-23T01:01:56;13.70;99.90
7388;DHT22;3735;50.136;11.062;2023-04-23T01:04:23;13.60;99.90
7388;DHT22;3735;50.136;11.062;2023-04-23T01:06:52;13.60;99.90
7388;DHT22;3735;50.136;11.062;2023-04-23T01:09:19;13.50;99.90
7388;DHT22;3735;50.136;11.062;2023-04-23T01:11:46;13.40;99.90
7388;DHT22;3735;50.136;11.062;2023-04-23T01:14:13;13.20;99.90
7388;DHT22;3735;50.136;11.062;2023-04-23T01:16:39;13.10;99.90
7388;DHT22;3735;50.136;11.062;2023-04-23T01:19:06;12.90;99.90
7388;DHT22;3735;50.136;11.062;2023-04-23T01:21:34;12.70;99.90
7388;DHT22;3735;50.136;11.062;2023-04-23T01:24:03;12.50;99.90
7388;DHT22;3735;50.136;11.062;2023-04-23T01:26:30;12.40;99.90
7388;DHT22;3735;50.136;11.062;2023-04-23T01:28:57;12.30;99.90
7388;DHT22;3735;50.136;11.062;2023-04-23T01:31:24;12.20;99.90
7388;DHT22;3735;50.136;11.062;2023-04-23T01:33:52;12.20;99.90
7388;DHT22;3735;50.136;11.062;2023-04-23T01:36:21;12.20;99.90
7388;DHT22;3735;50.136;11.062;2023-04-23T01:38:48;12.20;99.90
7388;DHT22;3735;50.136;11.062;2023-04-23T01:41:14;12.20;99.90
7388;DHT22;3735;50.136;11.062;2023-04-23T01:43:43;12.20;99.90
7388;DHT22;3735;50.136;11.062;2023-04-23T01:46:10;12.20;99.90
7388;DHT22;3735;50.136;11.062;2023-04-23T01:48:36;12.20;99.90
7388;DHT22;3735;50.136;11.062;2023-04-23T01:51:02;12.30;99.90
7388;DHT22;3735;50.136;11.062;2023-04-23T01:53:28;12.40;99.90
7388;DHT22;3735;50.136;11.062;2023-04-23T01:55:55;12.60;99.90
7388;DHT22;3735;50.136;11.062;2023-04-23T01:58:22;12.80;99.90
7388;DHT22;3735;50.136;11.062;2023-04-23T02:00:49;12.90;99.90
7388;DHT22;3735;50.136;11.062;2023-04-23T02:03:15;13.00;99.90
7388;DHT22;3735;50.136;11.062;2023-04-23T02:05:42;13.00;99.90
7388;DHT22;3735;50.136;11.062;2023-04-23T02:08:08;13.10;99.90
7388;DHT22;3735;50.136;11.062;2023-04-23T02:10:35;13.10;99.90
7388;DHT22;3735;50.136;11.062;2023-04-23T02:13:01;13.10;99.90
7388;DHT22;3735;50.136;11.062;2023-04-23T02:15:27;13.10;99.90
7388;DHT22;3735;50.136;11.062;2023-04-23T02:17:54;13.10;99.90
7388;DHT22;3735;50.136;11.062;2023-04-23T02:20:20;13.10;99.90
7388;DHT22;3735;50.136;11.062;2023-04-23T02:22:47;13.00;99.90
7388;DHT22;3735;50.136;11.062;2023-04-23T02:25:14;13.00;99.90
7388;DHT22;3735;50.136;11.062;2023-04-23T02:27:42;13.00;99.90
7388;DHT22;3735;50.136;11.062;2023-04-23T02:30:09;13.00;99.90
7388;DHT22;3735;50.136;11.062;2023-04-23T02:32:36;12.90;99.90
7388;DHT22;3735;50.136;11.062;2023-04-23T02:35:02;12.90;99.90
7388;DHT22;3735;50.136;11.062;2023-04-23T02:37:32;12.90;99.90
7388;DHT22;3735;50.136;11.062;2023-04-23T02:39:57;12.90;99.90
7388;DHT22;3735;50.136;11.062;2023-04-23T02:42:23;13.00;99.90
7388;DHT22;3735;50.136;11.062;2023-04-23T02:44:50;13.00;99.90
7388;DHT22;3735;50.136;11.062;2023-04-23T02:47:16;12.90;99.90
7388;DHT22;3735;50.136;11.062;2023-04-23T02:49:41;12.90;99.90
7388;DHT22;3735;50.136;11.062;2023-04-23T02:52:07;12.90;99.90
7388;DHT22;3735;50.136;11.062;2023-04-23T02:54:33;12.90;99.90
7388;DHT22;3735;50.136;11.062;2023-04-23T02:57:01;12.90;99.90
7388;DHT22;3735;50.136;11.062;2023-04-23T02:59:28;12.90;99.90
7388;DHT22;3735;50.136;11.062;2023-04-23T03:01:54;12.90;99.90
7388;DHT22;3735;50.136;11.062;2023-04-23T03:04:20;12.90;99.90
7388;DHT22;3735;50.136;11.062;2023-04-23T03:06:46;13.00;99.90
7388;DHT22;3735;50.136;11.062;2023-04-23T03:09:12;13.00;99.90
7388;DHT22;3735;50.136;11.062;2023-04-23T03:11:38;12.90;99.90
7388;DHT22;3735;50.136;11.062;2023-04-23T03:14:04;13.00;99.90
7388;DHT22;3735;50.136;11.062;2023-04-23T03:16:30;13.00;99.90
7388;DHT22;3735;50.136;11.062;2023-04-23T03:18:57;13.00;99.90
7388;DHT22;3735;50.136;11.062;2023-04-23T03:21:23;13.00;99.90
7388;DHT22;3735;50.136;11.062;2023-04-23T03:23:49;13.00;99.90
7388;DHT22;3735;50.136;11.062;2023-04-23T03:26:15;13.00;99.90
7388;DHT22;3735;50.136;11.062;2023-04-23T03:28:41;12.90;99.90
7388;DHT22;3735;50.136;11.062;2023-04-23T03:31:07;12.80;99.90
7388;DHT22;3735;50.136;11.062;2023-04-23T03:33:33;12.60;99.90
7388;DHT22;3735;50.136;11.062;2023-04-23T03:35:59;12.40;99.90
7388;DHT22;3735;50.136;11.062;2023-04-23T03:38:24;12.20;99.90
7388;DHT22;3735;50.136;11.062;2023-04-23T03:40:50;12.10;99.90
7388;DHT22;3735;50.136;11.062;2023-04-23T03:43:16;12.00;99.90
7388;DHT22;3735;50.136;11.062;2023-04-23T03:45:42;11.90;99.90
7388;DHT22;3735;50.136;11.062;2023-04-23T03:48:07;11.80;99.90
7388;DHT22;3735;50.136;11.062;2023-04-23T03:50:33;11.80;99.90
7388;DHT22;3735;50.136;11.062;2023-04-23T03:53:03;11.70;99.90
7388;DHT22;3735;50.136;11.062;2023-04-23T03:55:29;11.60;99.90
7388;DHT22;3735;50.136;11.062;2023-04-23T03:57:55;11.60;99.90
7388;DHT22;3735;50.136;11.062;2023-04-23T04:00:21;11.60;99.90
7388;DHT22;3735;50.136;11.062;2023-04-23T04:02:46;11.60;99.90
7388;DHT22;3735;50.136;11.062;2023-04-23T04:05:12;11.50;99.90
7388;DHT22;3735;50.136;11.062;2023-04-23T04:07:38;11.50;99.90
7388;DHT22;3735;50.136;11.062;2023-04-23T04:10:05;11.50;99.90
7388;DHT22;3735;50.136;11.062;2023-04-23T04:12:32;11.50;99.90
7388;DHT22;3735;50.136;11.062;2023-04-23T04:14:58;11.50;99.90
7388;DHT22;3735;50.136;11.062;2023-04-23T04:17:24;11.50;99.90
7388;DHT22;3735;50.136;11.062;2023-04-23T04:19:50;11.50;99.90
7388;DHT22;3735;50.136;11.062;2023-04-23T04:22:16;11.50;99.90
7388;DHT22;3735;50.136;11.062;2023-04-23T04:24:42;11.60;99.90
7388;DHT22;3735;50.136;11.062;2023-04-23T04:27:08;11.60;99.90
7388;DHT22;3735;50.136;11.062;2023-04-23T04:29:34;11.50;99.90
7388;DHT22;3735;50.136;11.062;2023-04-23T04:32:00;11.50;99.90
7388;DHT22;3735;50.136;11.062;2023-04-23T04:34:27;11.50;99.90
7388;DHT22;3735;50.136;11.062;2023-04-23T04:36:53;11.50;99.90
7388;DHT22;3735;50.136;11.062;2023-04-23T04:39:19;11.50;99.90
7388;DHT22;3735;50.136;11.062;2023-04-23T04:41:45;11.50;99.90
7388;DHT22;3735;50.136;11.062;2023-04-23T04:44:12;11.40;99.90
7388;DHT22;3735;50.136;11.062;2023-04-23T04:46:39;11.50;99.90
7388;DHT22;3735;50.136;11.062;2023-04-23T04:49:08;11.40;99.90
7388;DHT22;3735;50.136;11.062;2023-04-23T04:51:36;11.40;99.90
7388;DHT22;3735;50.136;11.062;2023-04-23T04:54:02;11.40;99.90
7388;DHT22;3735;50.136;11.062;2023-04-23T04:56:28;11.40;99.90
7388;DHT22;3735;50.136;11.062;2023-04-23T04:58:54;11.50;99.90
7388;DHT22;3735;50.136;11.062;2023-04-23T05:01:21;11.40;99.90
7388;DHT22;3735;50.136;11.062;2023-04-23T05:03:51;11.50;99.90
7388;DHT22;3735;50.136;11.062;2023-04-23T05:06:17;11.50;99.90
7388;DHT22;3735;50.136;11.062;2023-04-23T05:08:44;11.50;99.90
7388;DHT22;3735;50.136;11.062;2023-04-23T05:11:16;11.60;99.90
7388;DHT22;3735;50.136;11.062;2023-04-23T05:13:46;11.60;99.90
7388;DHT22;3735;50.136;11.062;2023-04-23T05:16:12;11.60;99.90
7388;DHT22;3735;50.136;11.062;2023-04-23T05:18:38;11.60;99.90
7388;DHT22;3735;50.136;11.062;2023-04-23T05:21:05;11.60;99.90
7388;DHT22;3735;50.136;11.062;2023-04-23T05:23:32;11.60;99.90
7388;DHT22;3735;50.136;11.062;2023-04-23T05:25:58;11.60;99.90
7388;DHT22;3735;50.136;11.062;2023-04-23T05:28:25;11.70;99.90
7388;DHT22;3735;50.136;11.062;2023-04-23T05:30:51;11.70;99.90
7388;DHT22;3735;50.136;11.062;2023-04-23T05:33:17;11.80;99.90
7388;DHT22;3735;50.136;11.062;2023-04-23T05:35:42;11.80;99.90
7388;DHT22;3735;50.136;11.062;2023-04-23T05:38:08;11.80;99.90
7388;DHT22;3735;50.136;11.062;2023-04-23T05:40:34;11.80;99.90
7388;DHT22;3735;50.136;11.062;2023-04-23T05:43:00;11.90;99.90
7388;DHT22;3735;50.136;11.062;2023-04-23T05:45:26;12.00;99.90
7388;DHT22;3735;50.136;11.062;2023-04-23T05:47:52;12.10;99.90
7388;DHT22;3735;50.136;11.062;2023-04-23T05:50:19;12.20;99.90
7388;DHT22;3735;50.136;11.062;2023-04-23T05:52:45;12.30;99.90
7388;DHT22;3735;50.136;11.062;2023-04-23T05:55:12;12.40;99.90
7388;DHT22;3735;50.136;11.062;2023-04-23T05:57:40;12.50;99.90
7388;DHT22;3735;50.136;11.062;2023-04-23T06:00:07;12.80;99.90
7388;DHT22;3735;50.136;11.062;2023-04-23T06:02:36;12.90;99.90
7388;DHT22;3735;50.136;11.062;2023-04-23T06:05:03;12.90;99.90
7388;DHT22;3735;50.136;11.062;2023-04-23T06:07:30;12.90;99.90
7388;DHT22;3735;50.136;11.062;2023-04-23T06:09:56;12.90;99.90
7388;DHT22;3735;50.136;11.062;2023-04-23T06:12:23;12.80;99.90
7388;DHT22;3735;50.136;11.062;2023-04-23T06:14:48;12.90;99.90
7388;DHT22;3735;50.136;11.062;2023-04-23T06:17:14;12.90;99.90
7388;DHT22;3735;50.136;11.062;2023-04-23T06:19:40;12.90;99.90
7388;DHT22;3735;50.136;11.062;2023-04-23T06:22:06;12.90;99.90
7388;DHT22;3735;50.136;11.062;2023-04-23T06:24:32;12.90;99.90
7388;DHT22;3735;50.136;11.062;2023-04-23T06:26:58;13.00;99.90
7388;DHT22;3735;50.136;11.062;2023-04-23T06:29:23;13.00;99.90
7388;DHT22;3735;50.136;11.062;2023-04-23T06:31:49;13.00;99.90
7388;DHT22;3735;50.136;11.062;2023-04-23T06:34:15;13.00;99.90
7388;DHT22;3735;50.136;11.062;2023-04-23T06:36:41;12.90;99.90
7388;DHT22;3735;50.136;11.062;2023-04-23T06:39:07;12.80;99.90
7388;DHT22;3735;50.136;11.062;2023-04-23T06:41:33;12.70;99.90
7388;DHT22;3735;50.136;11.062;2023-04-23T06:43:59;12.60;99.90
7388;DHT22;3735;50.136;11.062;2023-04-23T06:46:25;12.40;99.90
7388;DHT22;3735;50.136;11.062;2023-04-23T06:48:50;12.30;99.90
7388;DHT22;3735;50.136;11.062;2023-04-23T06:51:16;12.20;99.90
7388;DHT22;3735;50.136;11.062;2023-04-23T06:53:42;12.20;99.90
7388;DHT22;3735;50.136;11.062;2023-04-23T06:56:08;12.10;99.90
7388;DHT22;3735;50.136;11.062;2023-04-23T06:58:33;12.10;99.90
7388;DHT22;3735;50.136;11.062;2023-04-23T07:01:00;12.10;99.90
7388;DHT22;3735;50.136;11.062;2023-04-23T07:03:28;12.10;99.90
7388;DHT22;3735;50.136;11.062;2023-04-23T07:05:56;12.20;99.90
7388;DHT22;3735;50.136;11.062;2023-04-23T07:08:22;12.30;99.90
7388;DHT22;3735;50.136;11.062;2023-04-23T07:10:48;12.30;99.90
7388;DHT22;3735;50.136;11.062;2023-04-23T07:13:14;12.30;99.90
7388;DHT22;3735;50.136;11.062;2023-04-23T07:15:41;12.40;99.90
7388;DHT22;3735;50.136;11.062;2023-04-23T07:18:07;12.60;99.90
7388;DHT22;3735;50.136;11.062;2023-04-23T07:20:33;12.80;99.90
7388;DHT22;3735;50.136;11.062;2023-04-23T07:23:00;13.00;99.90
7388;DHT22;3735;50.136;11.062;2023-04-23T07:25:26;13.20;99.90
7388;DHT22;3735;50.136;11.062;2023-04-23T07:27:54;13.30;99.90
7388;DHT22;3735;50.136;11.062;2023-04-23T07:30:21;13.30;99.90
7388;DHT22;3735;50.136;11.062;2023-04-23T07:32:47;13.40;99.90
7388;DHT22;3735;50.136;11.062;2023-04-23T07:35:14;13.40;99.90
7388;DHT22;3735;50.136;11.062;2023-04-23T07:37:40;13.30;99.90
7388;DHT22;3735;50.136;11.062;2023-04-23T07:40:07;13.30;99.90
7388;DHT22;3735;50.136;11.062;2023-04-23T07:42:33;13.20;99.90
7388;DHT22;3735;50.136;11.062;2023-04-23T07:44:59;13.10;99.90
7388;DHT22;3735;50.136;11.062;2023-04-23T07:47:25;13.30;99.90
7388;DHT22;3735;50.136;11.062;2023-04-23T07:49:51;13.60;99.90
7388;DHT22;3735;50.136;11.062;2023-04-23T07:52:17;14.10;99.90
7388;DHT22;3735;50.136;11.062;2023-04-23T07:54:43;14.60;99.90
7388;DHT22;3735;50.136;11.062;2023-04-23T07:57:10;15.10;99.90
7388;DHT22;3735;50.136;11.062;2023-04-23T07:59:36;15.70;99.90
7388;DHT22;3735;50.136;11.062;2023-04-23T08:02:05;16.80;99.90
7388;DHT22;3735;50.136;11.062;2023-04-23T08:04:31;18.50;99.90
7388;DHT22;3735;50.136;11.062;2023-04-23T08:06:57;18.90;99.90
7388;DHT22;3735;50.136;11.062;2023-04-23T08:09:23;19.00;99.90
7388;DHT22;3735;50.136;11.062;2023-04-23T08:11:49;19.00;99.90
7388;DHT22;3735;50.136;11.062;2023-04-23T08:14:15;18.90;99.90
7388;DHT22;3735;50.136;11.062;2023-04-23T08:16:42;19.30;99.90
7388;DHT22;3735;50.136;11.062;2023-04-23T08:19:07;19.60;99.90
7388;DHT22;3735;50.136;11.062;2023-04-23T08:21:33;20.20;99.90
7388;DHT22;3735;50.136;11.062;2023-04-23T08:23:59;20.80;99.90
7388;DHT22;3735;50.136;11.062;2023-04-23T08:26:27;20.00;99.90
7388;DHT22;3735;50.136;11.062;2023-04-23T08:28:53;18.90;99.90
7388;DHT22;3735;50.136;11.062;2023-04-23T08:31:18;18.00;99.90
7388;DHT22;3735;50.136;11.062;2023-04-23T08:33:44;17.20;99.90
7388;DHT22;3735;50.136;11.062;2023-04-23T08:36:10;16.70;99.90
7388;DHT22;3735;50.136;11.062;2023-04-23T08:38:36;16.60;99.90
7388;DHT22;3735;50.136;11.062;2023-04-23T08:41:05;17.40;99.90
7388;DHT22;3735;50.136;11.062;2023-04-23T08:43:50;18.20;99.90
7388;DHT22;3735;50.136;11.062;2023-04-23T08:46:22;19.00;99.90
7388;DHT22;3735;50.136;11.062;2023-04-23T08:48:51;19.80;99.90
7388;DHT22;3735;50.136;11.062;2023-04-23T08:51:18;21.20;99.90
7388;DHT22;3735;50.136;11.062;2023-04-23T08:53:55;22.20;99.90
7388;DHT22;3735;50.136;11.062;2023-04-23T08:56:23;22.10;99.90
7388;DHT22;3735;50.136;11.062;2023-04-23T08:58:51;21.50;99.90
7388;DHT22;3735;50.136;11.062;2023-04-23T09:01:18;21.10;99.90
7388;DHT22;3735;50.136;11.062;2023-04-23T09:03:44;20.50;99.90
7388;DHT22;3735;50.136;11.062;2023-04-23T09:06:11;20.00;99.90
7388;DHT22;3735;50.136;11.062;2023-04-23T09:08:37;19.30;99.90
7388;DHT22;3735;50.136;11.062;2023-04-23T09:11:03;18.60;99.90
7388;DHT22;3735;50.136;11.062;2023-04-23T09:13:32;18.20;99.90
7388;DHT22;3735;50.136;11.062;2023-04-23T09:15:59;18.00;99.90
7388;DHT22;3735;50.136;11.062;2023-04-23T09:18:25;18.00;99.90
7388;DHT22;3735;50.136;11.062;2023-04-23T09:20:51;18.60;99.90
7388;DHT22;3735;50.136;11.062;2023-04-23T09:23:20;19.30;99.90
7388;DHT22;3735;50.136;11.062;2023-04-23T09:25:47;20.20;99.90
7388;DHT22;3735;50.136;11.062;2023-04-23T09:28:13;21.50;99.90
7388;DHT22;3735;50.136;11.062;2023-04-23T09:30:44;22.40;99.90
7388;DHT22;3735;50.136;11.062;2023-04-23T09:33:13;22.90;99.90
7388;DHT22;3735;50.136;11.062;2023-04-23T09:35:41;22.40;99.90
7388;DHT22;3735;50.136;11.062;2023-04-23T09:38:08;21.80;99.90
7388;DHT22;3735;50.136;11.062;2023-04-23T09:40:35;21.40;99.90
7388;DHT22;3735;50.136;11.062;2023-04-23T09:43:03;20.80;99.90
7388;DHT22;3735;50.136;11.062;2023-04-23T09:45:30;20.50;99.90
7388;DHT22;3735;50.136;11.062;2023-04-23T09:47:57;20.30;99.90
7388;DHT22;3735;50.136;11.062;2023-04-23T09:52:59;20.80;99.90
7388;DHT22;3735;50.136;11.062;2023-04-23T09:55:29;20.90;99.90
7388;DHT22;3735;50.136;11.062;2023-04-23T09:58:00;21.00;99.90
7388;DHT22;3735;50.136;11.062;2023-04-23T10:00:32;21.30;99.90
7388;DHT22;3735;50.136;11.062;2023-04-23T10:03:03;21.50;99.90
7388;DHT22;3735;50.136;11.062;2023-04-23T10:05:29;21.20;99.90
7388;DHT22;3735;50.136;11.062;2023-04-23T10:07:56;20.60;99.90
7388;DHT22;3735;50.136;11.062;2023-04-23T10:10:22;20.20;99.90
7388;DHT22;3735;50.136;11.062;2023-04-23T10:12:51;20.30;99.90
7388;DHT22;3735;50.136;11.062;2023-04-23T10:15:24;20.60;99.90
7388;DHT22;3735;50.136;11.062;2023-04-23T10:17:51;21.00;99.90
7388;DHT22;3735;50.136;11.062;2023-04-23T10:20:20;21.60;99.90
7388;DHT22;3735;50.136;11.062;2023-04-23T10:22:47;22.70;99.90
7388;DHT22;3735;50.136;11.062;2023-04-23T10:25:14;22.70;99.90
7388;DHT22;3735;50.136;11.062;2023-04-23T10:27:44;22.20;99.90
7388;DHT22;3735;50.136;11.062;2023-04-23T10:30:13;21.60;99.90
7388;DHT22;3735;50.136;11.062;2023-04-23T10:32:39;21.10;99.90
7388;DHT22;3735;50.136;11.062;2023-04-23T10:35:07;20.60;99.90
7388;DHT22;3735;50.136;11.062;2023-04-23T10:37:34;19.90;99.90
7388;DHT22;3735;50.136;11.062;2023-04-23T10:40:09;19.60;99.90
7388;DHT22;3735;50.136;11.062;2023-04-23T10:42:39;19.50;99.90
7388;DHT22;3735;50.136;11.062;2023-04-23T10:45:14;19.60;99.90
7388;DHT22;3735;50.136;11.062;2023-04-23T10:47:42;20.10;99.90
7388;DHT22;3735;50.136;11.062;2023-04-23T10:50:20;20.40;99.90
7388;DHT22;3735;50.136;11.062;2023-04-23T10:52:54;20.60;99.90
7388;DHT22;3735;50.136;11.062;2023-04-23T10:55:27;20.80;99.90
7388;DHT22;3735;50.136;11.062;2023-04-23T10:58:02;20.90;99.90
7388;DHT22;3735;50.136;11.062;2023-04-23T11:00:40;20.80;99.90
7388;DHT22;3735;50.136;11.062;2023-04-23T11:06:04;20.60;99.90
7388;DHT22;3735;50.136;11.062;2023-04-23T11:08:32;20.50;99.90
7388;DHT22;3735;50.136;11.062;2023-04-23T11:11:01;20.50;99.90
7388;DHT22;3735;50.136;11.062;2023-04-23T11:13:31;20.40;99.90
7388;DHT22;3735;50.136;11.062;2023-04-23T11:16:20;20.20;99.90
7388;DHT22;3735;50.136;11.062;2023-04-23T11:19:00;20.10;99.90
7388;DHT22;3735;50.136;11.062;2023-04-23T11:21:56;20.10;99.90
7388;DHT22;3735;50.136;11.062;2023-04-23T11:24:39;20.20;99.90
7388;DHT22;3735;50.136;11.062;2023-04-23T11:27:08;20.40;99.90
7388;DHT22;3735;50.136;11.062;2023-04-23T11:29:37;20.70;99.90
7388;DHT22;3735;50.136;11.062;2023-04-23T11:32:04;20.80;99.90
7388;DHT22;3735;50.136;11.062;2023-04-23T11:34:36;20.70;99.90
7388;DHT22;3735;50.136;11.062;2023-04-23T11:37:04;22.30;99.90
7388;DHT22;3735;50.136;11.062;2023-04-23T11:39:30;25.80;99.90
7388;DHT22;3735;50.136;11.062;2023-04-23T11:41:57;27.70;99.90
7388;DHT22;3735;50.136;11.062;2023-04-23T11:44:28;28.20;99.90
7388;DHT22;3735;50.136;11.062;2023-04-23T11:46:58;29.30;99.90
7388;DHT22;3735;50.136;11.062;2023-04-23T11:49:26;30.70;99.90
7388;DHT22;3735;50.136;11.062;2023-04-23T11:51:52;30.40;99.90
7388;DHT22;3735;50.136;11.062;2023-04-23T11:54:18;30.60;99.90
7388;DHT22;3735;50.136;11.062;2023-04-23T11:56:52;32.10;99.90
7388;DHT22;3735;50.136;11.062;2023-04-23T11:59:19;33.60;99.90
7388;DHT22;3735;50.136;11.062;2023-04-23T12:01:46;32.90;99.90
7388;DHT22;3735;50.136;11.062;2023-04-23T12:04:18;31.20;99.90
7388;DHT22;3735;50.136;11.062;2023-04-23T12:06:47;30.90;99.90
7388;DHT22;3735;50.136;11.062;2023-04-23T12:09:15;31.50;99.90
7388;DHT22;3735;50.136;11.062;2023-04-23T12:11:42;31.70;99.90
7388;DHT22;3735;50.136;11.062;2023-04-23T12:14:10;32.00;99.90
7388;DHT22;3735;50.136;11.062;2023-04-23T12:19:04;31.60;99.90
7388;DHT22;3735;50.136;11.062;2023-04-23T12:21:32;30.80;99.90
7388;DHT22;3735;50.136;11.062;2023-04-23T12:23:58;29.80;99.90
7388;DHT22;3735;50.136;11.062;2023-04-23T12:26:28;29.10;99.90
7388;DHT22;3735;50.136;11.062;2023-04-23T12:28:55;28.50;99.90
7388;DHT22;3735;50.136;11.062;2023-04-23T12:31:27;28.20;99.90
7388;DHT22;3735;50.136;11.062;2023-04-23T12:36:32;27.90;99.90
7388;DHT22;3735;50.136;11.062;2023-04-23T12:39:28;27.60;99.90
7388;DHT22;3735;50.136;11.062;2023-04-23T12:41:57;26.90;99.90
7388;DHT22;3735;50.136;11.062;2023-04-23T12:44:27;27.40;99.90
7388;DHT22;3735;50.136;11.062;2023-04-23T12:46:58;26.40;99.90
7388;DHT22;3735;50.136;11.062;2023-04-23T12:49:28;25.30;99.90
7388;DHT22;3735;50.136;11.062;2023-04-23T12:51:58;24.30;99.90
7388;DHT22;3735;50.136;11.062;2023-04-23T12:54:26;23.50;99.90
7388;DHT22;3735;50.136;11.062;2023-04-23T12:56:54;22.80;99.90
7388;DHT22;3735;50.136;11.062;2023-04-23T12:59:20;22.30;99.90
7388;DHT22;3735;50.136;11.062;2023-04-23T13:01:47;21.90;99.90
7388;DHT22;3735;50.136;11.062;2023-04-23T13:04:13;21.60;99.90
7388;DHT22;3735;50.136;11.062;2023-04-23T13:06:40;21.50;99.90
7388;DHT22;3735;50.136;11.062;2023-04-23T13:09:06;21.80;99.90
7388;DHT22;3735;50.136;11.062;2023-04-23T13:11:39;22.40;99.90
7388;DHT22;3735;50.136;11.062;2023-04-23T13:14:06;24.00;99.90
7388;DHT22;3735;50.136;11.062;2023-04-23T13:16:32;25.60;99.90
7388;DHT22;3735;50.136;11.062;2023-04-23T13:18:59;26.60;99.90
7388;DHT22;3735;50.136;11.062;2023-04-23T13:21:25;27.50;99.90
7388;DHT22;3735;50.136;11.062;2023-04-23T13:23:51;29.20;99.90
7388;DHT22;3735;50.136;11.062;2023-04-23T13:26:17;30.20;99.90
7388;DHT22;3735;50.136;11.062;2023-04-23T13:28:43;31.00;99.90
7388;DHT22;3735;50.136;11.062;2023-04-23T13:31:09;30.90;99.90
7388;DHT22;3735;50.136;11.062;2023-04-23T13:33:39;31.00;99.90
7388;DHT22;3735;50.136;11.062;2023-04-23T13:36:05;31.50;99.90
7388;DHT22;3735;50.136;11.062;2023-04-23T13:38:31;30.70;99.90
7388;DHT22;3735;50.136;11.062;2023-04-23T13:40:58;30.00;99.90
7388;DHT22;3735;50.136;11.062;2023-04-23T13:43:23;27.90;99.90
7388;DHT22;3735;50.136;11.062;2023-04-23T13:45:50;27.70;99.90
7388;DHT22;3735;50.136;11.062;2023-04-23T13:48:19;28.50;99.90
7388;DHT22;3735;50.136;11.062;2023-04-23T13:50:45;29.30;99.90
7388;DHT22;3735;50.136;11.062;2023-04-23T13:53:11;29.40;99.90
7388;DHT22;3735;50.136;11.062;2023-04-23T13:55:38;29.30;99.90
7388;DHT22;3735;50.136;11.062;2023-04-23T13:58:04;29.10;99.90
7388;DHT22;3735;50.136;11.062;2023-04-23T14:00:31;28.80;99.90
7388;DHT22;3735;50.136;11.062;2023-04-23T14:02:57;27.50;99.90
7388;DHT22;3735;50.136;11.062;2023-04-23T14:05:23;26.30;99.90
7388;DHT22;3735;50.136;11.062;2023-04-23T14:07:49;25.30;99.90
7388;DHT22;3735;50.136;11.062;2023-04-23T14:10:16;24.80;99.90
7388;DHT22;3735;50.136;11.062;2023-04-23T14:12:43;25.20;99.90
7388;DHT22;3735;50.136;11.062;2023-04-23T14:15:09;25.80;99.90
7388;DHT22;3735;50.136;11.062;2023-04-23T14:17:36;26.80;99.90
7388;DHT22;3735;50.136;11.062;2023-04-23T14:20:05;27.50;99.90
7388;DHT22;3735;50.136;11.062;2023-04-23T14:22:32;26.40;99.90
7388;DHT22;3735;50.136;11.062;2023-04-23T14:25:03;25.10;99.90
7388;DHT22;3735;50.136;11.062;2023-04-23T14:27:39;24.00;99.90
7388;DHT22;3735;50.136;11.062;2023-04-23T14:30:18;24.40;99.90
7388;DHT22;3735;50.136;11.062;2023-04-23T14:32:45;25.30;99.90
7388;DHT22;3735;50.136;11.062;2023-04-23T14:35:13;24.80;99.90
7388;DHT22;3735;50.136;11.062;2023-04-23T14:37:39;24.10;99.90
7388;DHT22;3735;50.136;11.062;2023-04-23T14:40:13;23.30;99.90
7388;DHT22;3735;50.136;11.062;2023-04-23T14:42:45;22.50;99.90
7388;DHT22;3735;50.136;11.062;2023-04-23T14:45:12;23.00;99.90
7388;DHT22;3735;50.136;11.062;2023-04-23T14:47:39;23.10;99.90
7388;DHT22;3735;50.136;11.062;2023-04-23T14:50:07;22.40;99.90
7388;DHT22;3735;50.136;11.062;2023-04-23T14:52:33;21.90;99.90
7388;DHT22;3735;50.136;11.062;2023-04-23T14:54:59;21.40;99.90
7388;DHT22;3735;50.136;11.062;2023-04-23T14:57:24;21.40;99.90
7388;DHT22;3735;50.136;11.062;2023-04-23T14:59:50;22.80;99.90
7388;DHT22;3735;50.136;11.062;2023-04-23T15:02:16;24.40;99.90
7388;DHT22;3735;50.136;11.062;2023-04-23T15:04:42;24.40;99.90
7388;DHT22;3735;50.136;11.062;2023-04-23T15:07:07;23.00;99.90
7388;DHT22;3735;50.136;11.062;2023-04-23T15:09:33;22.00;99.90
7388;DHT22;3735;50.136;11.062;2023-04-23T15:11:59;21.50;99.90
7388;DHT22;3735;50.136;11.062;2023-04-23T15:14:29;22.70;99.90
7388;DHT22;3735;50.136;11.062;2023-04-23T15:16:56;23.90;99.90
7388;DHT22;3735;50.136;11.062;2023-04-23T15:19:22;23.30;99.90
7388;DHT22;3735;50.136;11.062;2023-04-23T15:21:48;22.30;99.90
7388;DHT22;3735;50.136;11.062;2023-04-23T15:24:15;21.90;99.90
7388;DHT22;3735;50.136;11.062;2023-04-23T15:26:42;22.90;99.90
7388;DHT22;3735;50.136;11.062;2023-04-23T15:29:08;23.40;99.90
7388;DHT22;3735;50.136;11.062;2023-04-23T15:31:35;23.70;99.90
7388;DHT22;3735;50.136;11.062;2023-04-23T15:34:01;23.10;99.90
7388;DHT22;3735;50.136;11.062;2023-04-23T15:36:27;22.40;99.90
7388;DHT22;3735;50.136;11.062;2023-04-23T15:38:53;21.40;99.90
7388;DHT22;3735;50.136;11.062;2023-04-23T15:41:18;21.20;99.90
7388;DHT22;3735;50.136;11.062;2023-04-23T15:43:44;20.90;99.90
7388;DHT22;3735;50.136;11.062;2023-04-23T15:46:11;20.70;99.90
7388;DHT22;3735;50.136;11.062;2023-04-23T15:48:37;21.50;99.90
7388;DHT22;3735;50.136;11.062;2023-04-23T15:51:03;21.50;99.90
7388;DHT22;3735;50.136;11.062;2023-04-23T15:53:29;21.90;99.90
7388;DHT22;3735;50.136;11.062;2023-04-23T15:55:54;21.70;99.90